sensor_id;sensor_type;location;lat;lon;timestamp;P1;durP1;ratioP1;P2;durP2;ratioP2
71435;SDS011;59251;51.326;12.370;2022-11-20T00:00:37;25.15;;;10.32;;
71435;SDS011;59251;51.326;12.370;2022-11-20T00:03:02;25.30;;;10.63;;
71435;SDS011;59251;51.326;12.370;2022-11-20T00:05:28;26.73;;;11.27;;
71435;SDS011;59251;51.326;12.370;2022-11-20T00:07:53;25.05;;;10.65;;
71435;SDS011;59251;51.326;12.370;2022-11-20T00:10:19;24.15;;;9.93;;
71435;SDS011;59251;51.326;12.370;2022-11-20T00:12:44;24.50;;;10.37;;
71435;SDS011;59251;51.326;12.370;2022-11-20T00:15:10;23.87;;;10.13;;
71435;SDS011;59251;51.326;12.370;2022-11-20T00:17:35;25.60;;;10.30;;
71435;SDS011;59251;51.326;12.370;2022-11-20T00:20:00;22.77;;;9.50;;
71435;SDS011;59251;51.326;12.370;2022-11-20T00:22:26;24.30;;;9.63;;
71435;SDS011;59251;51.326;12.370;2022-11-20T00:24:51;29.37;;;11.17;;
71435;SDS011;59251;51.326;12.370;2022-11-20T00:27:16;25.80;;;10.60;;
71435;SDS011;59251;51.326;12.370;2022-11-20T00:29:42;23.02;;;9.85;;
71435;SDS011;59251;51.326;12.370;2022-11-20T00:32:07;24.25;;;9.32;;
71435;SDS011;59251;51.326;12.370;2022-11-20T00:34:33;26.50;;;10.37;;
71435;SDS011;59251;51.326;12.370;2022-11-20T00:36:58;27.40;;;10.40;;
71435;SDS011;59251;51.326;12.370;2022-11-20T00:39:23;23.23;;;9.27;;
71435;SDS011;59251;51.326;12.370;2022-11-20T00:41:49;22.90;;;9.70;;
71435;SDS011;59251;51.326;12.370;2022-11-20T00:44:15;23.52;;;9.73;;
71435;SDS011;59251;51.326;12.370;2022-11-20T00:46:40;24.70;;;10.03;;
71435;SDS011;59251;51.326;12.370;2022-11-20T00:49:05;28.03;;;10.87;;
71435;SDS011;59251;51.326;12.370;2022-11-20T00:51:31;24.97;;;10.37;;
71435;SDS011;59251;51.326;12.370;2022-11-20T00:53:59;25.63;;;9.93;;
71435;SDS011;59251;51.326;12.370;2022-11-20T00:56:27;26.55;;;10.55;;
71435;SDS011;59251;51.326;12.370;2022-11-20T00:58:52;25.13;;;10.07;;
71435;SDS011;59251;51.326;12.370;2022-11-20T01:01:19;26.07;;;10.63;;
71435;SDS011;59251;51.326;12.370;2022-11-20T01:03:46;30.27;;;11.05;;
71435;SDS011;59251;51.326;12.370;2022-11-20T01:06:17;26.02;;;10.43;;
71435;SDS011;59251;51.326;12.370;2022-11-20T01:08:48;27.25;;;10.15;;
71435;SDS011;59251;51.326;12.370;2022-11-20T01:11:15;27.42;;;10.57;;
71435;SDS011;59251;51.326;12.370;2022-11-20T01:13:45;27.30;;;10.53;;
71435;SDS011;59251;51.326;12.370;2022-11-20T01:18:43;24.55;;;9.50;;
71435;SDS011;59251;51.326;12.370;2022-11-20T01:21:12;27.23;;;10.70;;
71435;SDS011;59251;51.326;12.370;2022-11-20T01:23:42;25.50;;;10.25;;
71435;SDS011;59251;51.326;12.370;2022-11-20T01:26:09;26.63;;;10.67;;
71435;SDS011;59251;51.326;12.370;2022-11-20T01:28:37;25.75;;;9.88;;
71435;SDS011;59251;51.326;12.370;2022-11-20T01:31:16;26.13;;;10.38;;
71435;SDS011;59251;51.326;12.370;2022-11-20T01:33:52;26.27;;;10.30;;
71435;SDS011;59251;51.326;12.370;2022-11-20T01:36:19;28.02;;;10.52;;
71435;SDS011;59251;51.326;12.370;2022-11-20T01:38:46;25.75;;;9.93;;
71435;SDS011;59251;51.326;12.370;2022-11-20T01:41:13;27.05;;;10.00;;
71435;SDS011;59251;51.326;12.370;2022-11-20T01:44:00;28.45;;;10.80;;
71435;SDS011;59251;51.326;12.370;2022-11-20T01:46:26;33.08;;;11.50;;
71435;SDS011;59251;51.326;12.370;2022-11-20T01:51:39;28.38;;;9.98;;
71435;SDS011;59251;51.326;12.370;2022-11-20T01:54:23;28.05;;;9.63;;
71435;SDS011;59251;51.326;12.370;2022-11-20T01:56:54;27.27;;;10.63;;
71435;SDS011;59251;51.326;12.370;2022-11-20T01:59:24;28.50;;;10.10;;
71435;SDS011;59251;51.326;12.370;2022-11-20T02:01:52;27.10;;;10.48;;
71435;SDS011;59251;51.326;12.370;2022-11-20T02:04:18;28.17;;;10.63;;
71435;SDS011;59251;51.326;12.370;2022-11-20T02:06:49;25.58;;;11.15;;
71435;SDS011;59251;51.326;12.370;2022-11-20T02:09:25;25.95;;;10.38;;
71435;SDS011;59251;51.326;12.370;2022-11-20T02:11:52;27.33;;;10.33;;
71435;SDS011;59251;51.326;12.370;2022-11-20T02:14:17;27.25;;;9.98;;
71435;SDS011;59251;51.326;12.370;2022-11-20T02:16:46;27.77;;;10.70;;
71435;SDS011;59251;51.326;12.370;2022-11-20T02:19:17;32.33;;;12.57;;
71435;SDS011;59251;51.326;12.370;2022-11-20T02:24:27;28.70;;;11.55;;
71435;SDS011;59251;51.326;12.370;2022-11-20T02:26:54;28.63;;;10.40;;
71435;SDS011;59251;51.326;12.370;2022-11-20T02:29:28;30.30;;;11.85;;
71435;SDS011;59251;51.326;12.370;2022-11-20T02:31:58;28.93;;;11.10;;
71435;SDS011;59251;51.326;12.370;2022-11-20T02:34:26;28.23;;;11.25;;
71435;SDS011;59251;51.326;12.370;2022-11-20T02:36:52;31.15;;;11.70;;
71435;SDS011;59251;51.326;12.370;2022-11-20T02:39:18;29.37;;;11.53;;
71435;SDS011;59251;51.326;12.370;2022-11-20T02:41:45;30.95;;;11.55;;
71435;SDS011;59251;51.326;12.370;2022-11-20T02:44:10;34.73;;;11.60;;
71435;SDS011;59251;51.326;12.370;2022-11-20T02:46:36;30.92;;;11.52;;
71435;SDS011;59251;51.326;12.370;2022-11-20T02:49:02;31.80;;;11.50;;
71435;SDS011;59251;51.326;12.370;2022-11-20T02:51:28;32.08;;;11.65;;
71435;SDS011;59251;51.326;12.370;2022-11-20T02:53:53;32.27;;;11.83;;
71435;SDS011;59251;51.326;12.370;2022-11-20T02:56:19;33.42;;;11.25;;
71435;SDS011;59251;51.326;12.370;2022-11-20T02:58:45;30.42;;;11.70;;
71435;SDS011;59251;51.326;12.370;2022-11-20T03:01:10;31.27;;;11.85;;
71435;SDS011;59251;51.326;12.370;2022-11-20T03:03:36;32.00;;;12.17;;
71435;SDS011;59251;51.326;12.370;2022-11-20T03:06:02;27.67;;;11.23;;
71435;SDS011;59251;51.326;12.370;2022-11-20T03:08:27;33.00;;;12.15;;
71435;SDS011;59251;51.326;12.370;2022-11-20T03:10:53;32.30;;;12.83;;
71435;SDS011;59251;51.326;12.370;2022-11-20T03:13:18;34.80;;;12.00;;
71435;SDS011;59251;51.326;12.370;2022-11-20T03:15:44;30.27;;;11.80;;
71435;SDS011;59251;51.326;12.370;2022-11-20T03:18:09;33.83;;;12.20;;
71435;SDS011;59251;51.326;12.370;2022-11-20T03:20:35;40.63;;;13.80;;
71435;SDS011;59251;51.326;12.370;2022-11-20T03:23:01;34.90;;;12.73;;
71435;SDS011;59251;51.326;12.370;2022-11-20T03:25:26;39.00;;;13.75;;
71435;SDS011;59251;51.326;12.370;2022-11-20T03:27:52;37.50;;;13.80;;
71435;SDS011;59251;51.326;12.370;2022-11-20T03:30:18;38.10;;;12.65;;
71435;SDS011;59251;51.326;12.370;2022-11-20T03:32:43;37.97;;;13.15;;
71435;SDS011;59251;51.326;12.370;2022-11-20T03:35:09;33.28;;;12.57;;
71435;SDS011;59251;51.326;12.370;2022-11-20T03:37:35;39.83;;;12.77;;
71435;SDS011;59251;51.326;12.370;2022-11-20T03:40:00;36.93;;;12.87;;
71435;SDS011;59251;51.326;12.370;2022-11-20T03:42:25;40.90;;;14.97;;
71435;SDS011;59251;51.326;12.370;2022-11-20T03:45:09;38.38;;;14.23;;
71435;SDS011;59251;51.326;12.370;2022-11-20T03:47:35;33.57;;;13.20;;
71435;SDS011;59251;51.326;12.370;2022-11-20T03:50:00;38.17;;;15.05;;
71435;SDS011;59251;51.326;12.370;2022-11-20T03:52:26;42.43;;;14.93;;
71435;SDS011;59251;51.326;12.370;2022-11-20T03:54:51;44.43;;;15.63;;
71435;SDS011;59251;51.326;12.370;2022-11-20T03:57:17;41.93;;;13.20;;
71435;SDS011;59251;51.326;12.370;2022-11-20T03:59:42;40.50;;;13.40;;
71435;SDS011;59251;51.326;12.370;2022-11-20T04:02:07;36.23;;;13.37;;
71435;SDS011;59251;51.326;12.370;2022-11-20T04:04:33;36.47;;;12.37;;
71435;SDS011;59251;51.326;12.370;2022-11-20T04:06:58;39.13;;;13.45;;
71435;SDS011;59251;51.326;12.370;2022-11-20T04:09:24;34.43;;;12.23;;
71435;SDS011;59251;51.326;12.370;2022-11-20T04:11:49;36.37;;;13.53;;
71435;SDS011;59251;51.326;12.370;2022-11-20T04:14:15;34.33;;;12.17;;
71435;SDS011;59251;51.326;12.370;2022-11-20T04:16:41;35.10;;;11.68;;
71435;SDS011;59251;51.326;12.370;2022-11-20T04:19:11;33.13;;;13.17;;
71435;SDS011;59251;51.326;12.370;2022-11-20T04:21:38;31.75;;;12.18;;
71435;SDS011;59251;51.326;12.370;2022-11-20T04:24:03;33.50;;;12.85;;
71435;SDS011;59251;51.326;12.370;2022-11-20T04:26:29;29.73;;;10.50;;
71435;SDS011;59251;51.326;12.370;2022-11-20T04:28:55;33.10;;;11.73;;
71435;SDS011;59251;51.326;12.370;2022-11-20T04:31:23;34.90;;;12.10;;
71435;SDS011;59251;51.326;12.370;2022-11-20T04:33:50;34.58;;;14.00;;
71435;SDS011;59251;51.326;12.370;2022-11-20T04:36:25;37.72;;;13.75;;
71435;SDS011;59251;51.326;12.370;2022-11-20T04:38:52;34.80;;;12.87;;
71435;SDS011;59251;51.326;12.370;2022-11-20T04:41:19;36.38;;;13.88;;
71435;SDS011;59251;51.326;12.370;2022-11-20T04:43:46;39.17;;;12.93;;
71435;SDS011;59251;51.326;12.370;2022-11-20T04:46:16;31.75;;;11.70;;
71435;SDS011;59251;51.326;12.370;2022-11-20T04:48:43;33.28;;;11.82;;
71435;SDS011;59251;51.326;12.370;2022-11-20T04:51:09;36.45;;;14.32;;
71435;SDS011;59251;51.326;12.370;2022-11-20T04:53:34;33.13;;;12.60;;
71435;SDS011;59251;51.326;12.370;2022-11-20T04:56:03;36.60;;;13.17;;
71435;SDS011;59251;51.326;12.370;2022-11-20T04:58:33;37.85;;;13.88;;
71435;SDS011;59251;51.326;12.370;2022-11-20T05:01:02;31.20;;;12.57;;
71435;SDS011;59251;51.326;12.370;2022-11-20T05:03:28;34.50;;;11.88;;
71435;SDS011;59251;51.326;12.370;2022-11-20T05:05:54;36.45;;;12.80;;
71435;SDS011;59251;51.326;12.370;2022-11-20T05:08:19;35.87;;;11.87;;
71435;SDS011;59251;51.326;12.370;2022-11-20T05:10:44;34.40;;;11.77;;
71435;SDS011;59251;51.326;12.370;2022-11-20T05:13:10;32.87;;;11.50;;
71435;SDS011;59251;51.326;12.370;2022-11-20T05:15:35;33.60;;;12.77;;
71435;SDS011;59251;51.326;12.370;2022-11-20T05:18:00;35.17;;;12.17;;
71435;SDS011;59251;51.326;12.370;2022-11-20T05:20:26;35.10;;;13.10;;
71435;SDS011;59251;51.326;12.370;2022-11-20T05:22:51;30.45;;;12.50;;
71435;SDS011;59251;51.326;12.370;2022-11-20T05:25:17;35.00;;;12.17;;
71435;SDS011;59251;51.326;12.370;2022-11-20T05:27:42;32.43;;;12.07;;
71435;SDS011;59251;51.326;12.370;2022-11-20T05:30:08;33.03;;;12.57;;
71435;SDS011;59251;51.326;12.370;2022-11-20T05:32:34;35.63;;;12.90;;
71435;SDS011;59251;51.326;12.370;2022-11-20T05:34:59;34.03;;;12.60;;
71435;SDS011;59251;51.326;12.370;2022-11-20T05:37:25;32.43;;;12.23;;
71435;SDS011;59251;51.326;12.370;2022-11-20T05:39:50;35.33;;;12.90;;
71435;SDS011;59251;51.326;12.370;2022-11-20T05:42:15;32.17;;;11.53;;
71435;SDS011;59251;51.326;12.370;2022-11-20T05:44:59;39.13;;;12.57;;
71435;SDS011;59251;51.326;12.370;2022-11-20T05:47:31;35.65;;;13.13;;
71435;SDS011;59251;51.326;12.370;2022-11-20T05:49:57;31.23;;;11.83;;
71435;SDS011;59251;51.326;12.370;2022-11-20T05:52:23;39.97;;;12.65;;
71435;SDS011;59251;51.326;12.370;2022-11-20T05:54:48;35.27;;;11.37;;
71435;SDS011;59251;51.326;12.370;2022-11-20T05:57:14;31.07;;;11.67;;
71435;SDS011;59251;51.326;12.370;2022-11-20T05:59:39;32.93;;;12.97;;
71435;SDS011;59251;51.326;12.370;2022-11-20T06:02:04;32.03;;;11.77;;
71435;SDS011;59251;51.326;12.370;2022-11-20T06:04:30;34.10;;;10.47;;
71435;SDS011;59251;51.326;12.370;2022-11-20T06:06:55;32.77;;;11.73;;
71435;SDS011;59251;51.326;12.370;2022-11-20T06:09:21;32.23;;;11.97;;
71435;SDS011;59251;51.326;12.370;2022-11-20T06:11:46;32.20;;;12.50;;
71435;SDS011;59251;51.326;12.370;2022-11-20T06:14:12;33.07;;;11.83;;
71435;SDS011;59251;51.326;12.370;2022-11-20T06:16:37;41.78;;;13.93;;
71435;SDS011;59251;51.326;12.370;2022-11-20T06:19:02;33.57;;;13.07;;
71435;SDS011;59251;51.326;12.370;2022-11-20T06:21:28;34.70;;;12.93;;
71435;SDS011;59251;51.326;12.370;2022-11-20T06:23:53;39.20;;;13.77;;
71435;SDS011;59251;51.326;12.370;2022-11-20T06:26:23;33.53;;;12.20;;
71435;SDS011;59251;51.326;12.370;2022-11-20T06:28:50;33.92;;;13.13;;
71435;SDS011;59251;51.326;12.370;2022-11-20T06:31:17;39.22;;;12.98;;
71435;SDS011;59251;51.326;12.370;2022-11-20T06:33:45;36.97;;;12.73;;
71435;SDS011;59251;51.326;12.370;2022-11-20T06:36:11;40.50;;;13.98;;
71435;SDS011;59251;51.326;12.370;2022-11-20T06:38:37;38.25;;;12.98;;
71435;SDS011;59251;51.326;12.370;2022-11-20T06:41:04;39.63;;;13.57;;
71435;SDS011;59251;51.326;12.370;2022-11-20T06:43:30;35.30;;;12.60;;
71435;SDS011;59251;51.326;12.370;2022-11-20T06:45:56;38.33;;;12.10;;
71435;SDS011;59251;51.326;12.370;2022-11-20T06:48:23;40.45;;;13.30;;
71435;SDS011;59251;51.326;12.370;2022-11-20T06:50:48;36.60;;;13.48;;
71435;SDS011;59251;51.326;12.370;2022-11-20T06:53:14;38.63;;;12.57;;
71435;SDS011;59251;51.326;12.370;2022-11-20T06:55:43;33.87;;;12.17;;
71435;SDS011;59251;51.326;12.370;2022-11-20T06:58:09;35.13;;;13.00;;
71435;SDS011;59251;51.326;12.370;2022-11-20T07:00:35;38.03;;;12.60;;
71435;SDS011;59251;51.326;12.370;2022-11-20T07:03:04;39.20;;;12.10;;
71435;SDS011;59251;51.326;12.370;2022-11-20T07:05:30;37.90;;;12.73;;
71435;SDS011;59251;51.326;12.370;2022-11-20T07:07:56;36.90;;;12.47;;
71435;SDS011;59251;51.326;12.370;2022-11-20T07:10:22;34.40;;;13.43;;
71435;SDS011;59251;51.326;12.370;2022-11-20T07:12:54;35.57;;;13.47;;
71435;SDS011;59251;51.326;12.370;2022-11-20T07:15:20;30.38;;;11.52;;
71435;SDS011;59251;51.326;12.370;2022-11-20T07:17:46;38.95;;;13.32;;
71435;SDS011;59251;51.326;12.370;2022-11-20T07:20:12;30.73;;;10.83;;
71435;SDS011;59251;51.326;12.370;2022-11-20T07:22:38;33.88;;;12.20;;
71435;SDS011;59251;51.326;12.370;2022-11-20T07:25:04;34.23;;;12.67;;
71435;SDS011;59251;51.326;12.370;2022-11-20T07:27:30;32.53;;;11.68;;
71435;SDS011;59251;51.326;12.370;2022-11-20T07:29:56;32.90;;;11.25;;
71435;SDS011;59251;51.326;12.370;2022-11-20T07:32:22;34.30;;;12.73;;
71435;SDS011;59251;51.326;12.370;2022-11-20T07:34:47;34.57;;;13.70;;
71435;SDS011;59251;51.326;12.370;2022-11-20T07:37:13;40.70;;;14.53;;
71435;SDS011;59251;51.326;12.370;2022-11-20T07:39:39;35.13;;;12.13;;
71435;SDS011;59251;51.326;12.370;2022-11-20T07:42:05;34.88;;;13.38;;
71435;SDS011;59251;51.326;12.370;2022-11-20T07:44:31;32.50;;;12.87;;
71435;SDS011;59251;51.326;12.370;2022-11-20T07:46:57;32.95;;;12.88;;
71435;SDS011;59251;51.326;12.370;2022-11-20T07:49:22;34.53;;;13.00;;
71435;SDS011;59251;51.326;12.370;2022-11-20T07:51:49;33.90;;;12.17;;
71435;SDS011;59251;51.326;12.370;2022-11-20T07:54:16;34.28;;;11.88;;
71435;SDS011;59251;51.326;12.370;2022-11-20T07:56:41;39.43;;;13.60;;
71435;SDS011;59251;51.326;12.370;2022-11-20T07:59:07;33.20;;;11.23;;
71435;SDS011;59251;51.326;12.370;2022-11-20T08:01:32;33.23;;;11.67;;
71435;SDS011;59251;51.326;12.370;2022-11-20T08:03:57;32.63;;;11.27;;
71435;SDS011;59251;51.326;12.370;2022-11-20T08:06:23;28.60;;;11.38;;
71435;SDS011;59251;51.326;12.370;2022-11-20T08:08:49;31.57;;;11.47;;
71435;SDS011;59251;51.326;12.370;2022-11-20T08:11:15;36.88;;;13.63;;
71435;SDS011;59251;51.326;12.370;2022-11-20T08:13:59;32.15;;;11.32;;
71435;SDS011;59251;51.326;12.370;2022-11-20T08:16:37;35.60;;;12.60;;
71435;SDS011;59251;51.326;12.370;2022-11-20T08:19:09;36.57;;;12.70;;
71435;SDS011;59251;51.326;12.370;2022-11-20T08:21:35;28.85;;;10.88;;
71435;SDS011;59251;51.326;12.370;2022-11-20T08:24:01;33.15;;;12.48;;
71435;SDS011;59251;51.326;12.370;2022-11-20T08:26:26;25.97;;;8.53;;
71435;SDS011;59251;51.326;12.370;2022-11-20T08:28:55;27.77;;;10.67;;
71435;SDS011;59251;51.326;12.370;2022-11-20T08:31:22;25.77;;;9.43;;
71435;SDS011;59251;51.326;12.370;2022-11-20T08:33:51;26.17;;;10.80;;
71435;SDS011;59251;51.326;12.370;2022-11-20T08:36:17;30.27;;;11.73;;
71435;SDS011;59251;51.326;12.370;2022-11-20T08:38:46;28.27;;;9.68;;
71435;SDS011;59251;51.326;12.370;2022-11-20T08:41:21;24.58;;;9.65;;
71435;SDS011;59251;51.326;12.370;2022-11-20T08:44:00;25.20;;;9.07;;
71435;SDS011;59251;51.326;12.370;2022-11-20T08:46:30;26.70;;;9.43;;
71435;SDS011;59251;51.326;12.370;2022-11-20T08:49:08;26.02;;;9.60;;
71435;SDS011;59251;51.326;12.370;2022-11-20T08:51:35;26.73;;;10.25;;
71435;SDS011;59251;51.326;12.370;2022-11-20T08:54:01;27.10;;;9.90;;
71435;SDS011;59251;51.326;12.370;2022-11-20T08:56:26;25.48;;;9.75;;
71435;SDS011;59251;51.326;12.370;2022-11-20T08:58:52;23.53;;;8.60;;
71435;SDS011;59251;51.326;12.370;2022-11-20T09:01:18;23.13;;;8.20;;
71435;SDS011;59251;51.326;12.370;2022-11-20T09:03:45;16.87;;;6.17;;
71435;SDS011;59251;51.326;12.370;2022-11-20T09:06:10;25.55;;;9.60;;
71435;SDS011;59251;51.326;12.370;2022-11-20T09:08:36;23.27;;;7.37;;
71435;SDS011;59251;51.326;12.370;2022-11-20T09:11:02;27.60;;;10.07;;
71435;SDS011;59251;51.326;12.370;2022-11-20T09:13:28;19.85;;;7.80;;
71435;SDS011;59251;51.326;12.370;2022-11-20T09:15:54;26.83;;;9.65;;
71435;SDS011;59251;51.326;12.370;2022-11-20T09:18:24;23.67;;;8.52;;
71435;SDS011;59251;51.326;12.370;2022-11-20T09:20:50;25.42;;;9.40;;
71435;SDS011;59251;51.326;12.370;2022-11-20T09:23:16;24.33;;;9.07;;
71435;SDS011;59251;51.326;12.370;2022-11-20T09:25:42;16.25;;;6.03;;
71435;SDS011;59251;51.326;12.370;2022-11-20T09:28:08;18.00;;;7.63;;
71435;SDS011;59251;51.326;12.370;2022-11-20T09:30:34;18.20;;;6.63;;
71435;SDS011;59251;51.326;12.370;2022-11-20T09:32:59;12.48;;;4.88;;
71435;SDS011;59251;51.326;12.370;2022-11-20T09:35:24;18.03;;;6.60;;
71435;SDS011;59251;51.326;12.370;2022-11-20T09:37:50;17.80;;;7.03;;
71435;SDS011;59251;51.326;12.370;2022-11-20T09:40:19;26.50;;;9.33;;
71435;SDS011;59251;51.326;12.370;2022-11-20T09:42:59;17.60;;;7.50;;
71435;SDS011;59251;51.326;12.370;2022-11-20T09:48:26;25.00;;;9.23;;
71435;SDS011;59251;51.326;12.370;2022-11-20T09:56:30;20.20;;;6.88;;
71435;SDS011;59251;51.326;12.370;2022-11-20T09:58:59;22.30;;;7.78;;
71435;SDS011;59251;51.326;12.370;2022-11-20T10:01:30;22.27;;;7.93;;
71435;SDS011;59251;51.326;12.370;2022-11-20T10:04:03;20.00;;;7.53;;
71435;SDS011;59251;51.326;12.370;2022-11-20T10:09:34;20.92;;;8.18;;
71435;SDS011;59251;51.326;12.370;2022-11-20T10:29:21;18.93;;;6.67;;
71435;SDS011;59251;51.326;12.370;2022-11-20T10:31:33;24.70;;;8.95;;
71435;SDS011;59251;51.326;12.370;2022-11-20T10:34:00;20.75;;;8.55;;
71435;SDS011;59251;51.326;12.370;2022-11-20T10:36:30;22.23;;;8.15;;
71435;SDS011;59251;51.326;12.370;2022-11-20T10:39:18;24.10;;;8.63;;
71435;SDS011;59251;51.326;12.370;2022-11-20T10:42:01;22.97;;;7.30;;
71435;SDS011;59251;51.326;12.370;2022-11-20T10:44:28;20.63;;;8.00;;
71435;SDS011;59251;51.326;12.370;2022-11-20T10:47:14;17.77;;;5.72;;
71435;SDS011;59251;51.326;12.370;2022-11-20T10:49:41;18.00;;;7.47;;
71435;SDS011;59251;51.326;12.370;2022-11-20T11:00:42;18.98;;;7.05;;
71435;SDS011;59251;51.326;12.370;2022-11-20T11:03:14;16.70;;;6.47;;
71435;SDS011;59251;51.326;12.370;2022-11-20T11:05:50;13.23;;;4.63;;
71435;SDS011;59251;51.326;12.370;2022-11-20T11:08:21;17.80;;;6.05;;
71435;SDS011;59251;51.326;12.370;2022-11-20T11:13:22;16.45;;;6.30;;
71435;SDS011;59251;51.326;12.370;2022-11-20T11:15:50;14.27;;;5.45;;
71435;SDS011;59251;51.326;12.370;2022-11-20T11:18:50;11.30;;;4.50;;
71435;SDS011;59251;51.326;12.370;2022-11-20T11:21:08;14.85;;;4.75;;
71435;SDS011;59251;51.326;12.370;2022-11-20T11:23:38;11.37;;;4.40;;
71435;SDS011;59251;51.326;12.370;2022-11-20T11:26:06;14.20;;;5.47;;
71435;SDS011;59251;51.326;12.370;2022-11-20T11:28:56;14.88;;;6.00;;
71435;SDS011;59251;51.326;12.370;2022-11-20T11:31:23;17.00;;;5.47;;
71435;SDS011;59251;51.326;12.370;2022-11-20T11:33:50;14.70;;;5.13;;
71435;SDS011;59251;51.326;12.370;2022-11-20T11:36:20;15.40;;;5.07;;
71435;SDS011;59251;51.326;12.370;2022-11-20T11:38:50;12.98;;;5.22;;
71435;SDS011;59251;51.326;12.370;2022-11-20T11:41:22;16.52;;;6.10;;
71435;SDS011;59251;51.326;12.370;2022-11-20T11:43:54;13.33;;;5.00;;
71435;SDS011;59251;51.326;12.370;2022-11-20T11:46:44;13.82;;;5.60;;
71435;SDS011;59251;51.326;12.370;2022-11-20T11:49:18;16.25;;;5.60;;
71435;SDS011;59251;51.326;12.370;2022-11-20T11:54:25;13.10;;;5.10;;
71435;SDS011;59251;51.326;12.370;2022-11-20T12:16:12;14.75;;;5.00;;
71435;SDS011;59251;51.326;12.370;2022-11-20T12:18:39;15.25;;;5.95;;
71435;SDS011;59251;51.326;12.370;2022-11-20T12:21:20;16.23;;;6.43;;
71435;SDS011;59251;51.326;12.370;2022-11-20T12:23:59;15.13;;;5.30;;
71435;SDS011;59251;51.326;12.370;2022-11-20T12:26:45;13.38;;;5.22;;
71435;SDS011;59251;51.326;12.370;2022-11-20T12:32:26;14.32;;;5.07;;
71435;SDS011;59251;51.326;12.370;2022-11-20T12:35:14;13.57;;;5.45;;
71435;SDS011;59251;51.326;12.370;2022-11-20T12:40:24;14.50;;;5.85;;
71435;SDS011;59251;51.326;12.370;2022-11-20T12:48:36;13.48;;;5.38;;
71435;SDS011;59251;51.326;12.370;2022-11-20T12:56:52;12.35;;;5.15;;
71435;SDS011;59251;51.326;12.370;2022-11-20T12:59:42;13.45;;;5.38;;
71435;SDS011;59251;51.326;12.370;2022-11-20T13:15:59;12.45;;;4.38;;
71435;SDS011;59251;51.326;12.370;2022-11-20T13:18:26;13.60;;;5.63;;
71435;SDS011;59251;51.326;12.370;2022-11-20T13:20:52;13.47;;;5.13;;
71435;SDS011;59251;51.326;12.370;2022-11-20T13:23:25;13.30;;;4.75;;
71435;SDS011;59251;51.326;12.370;2022-11-20T13:26:02;13.30;;;4.85;;
71435;SDS011;59251;51.326;12.370;2022-11-20T13:28:41;13.07;;;5.33;;
71435;SDS011;59251;51.326;12.370;2022-11-20T13:31:23;15.93;;;5.55;;
71435;SDS011;59251;51.326;12.370;2022-11-20T13:33:56;14.63;;;5.50;;
71435;SDS011;59251;51.326;12.370;2022-11-20T13:36:23;13.68;;;5.28;;
71435;SDS011;59251;51.326;12.370;2022-11-20T13:38:54;14.38;;;5.20;;
71435;SDS011;59251;51.326;12.370;2022-11-20T13:41:24;15.65;;;5.45;;
71435;SDS011;59251;51.326;12.370;2022-11-20T13:44:04;14.35;;;5.43;;
71435;SDS011;59251;51.326;12.370;2022-11-20T13:46:44;13.67;;;5.70;;
71435;SDS011;59251;51.326;12.370;2022-11-20T13:52:04;14.38;;;5.00;;
71435;SDS011;59251;51.326;12.370;2022-11-20T14:00:03;12.97;;;5.00;;
71435;SDS011;59251;51.326;12.370;2022-11-20T14:02:30;13.32;;;5.20;;
71435;SDS011;59251;51.326;12.370;2022-11-20T14:04:58;15.85;;;5.13;;
71435;SDS011;59251;51.326;12.370;2022-11-20T14:07:27;11.88;;;4.65;;
71435;SDS011;59251;51.326;12.370;2022-11-20T14:10:02;11.48;;;4.55;;
71435;SDS011;59251;51.326;12.370;2022-11-20T14:12:29;11.90;;;4.90;;
71435;SDS011;59251;51.326;12.370;2022-11-20T14:14:56;12.10;;;4.90;;
71435;SDS011;59251;51.326;12.370;2022-11-20T14:17:31;11.38;;;4.68;;
71435;SDS011;59251;51.326;12.370;2022-11-20T14:19:59;14.40;;;5.60;;
71435;SDS011;59251;51.326;12.370;2022-11-20T14:22:29;12.40;;;4.93;;
71435;SDS011;59251;51.326;12.370;2022-11-20T14:25:05;14.30;;;5.93;;
71435;SDS011;59251;51.326;12.370;2022-11-20T14:27:37;13.80;;;5.80;;
71435;SDS011;59251;51.326;12.370;2022-11-20T14:30:04;15.50;;;5.53;;
71435;SDS011;59251;51.326;12.370;2022-11-20T14:32:31;16.88;;;6.60;;
71435;SDS011;59251;51.326;12.370;2022-11-20T14:35:01;15.98;;;5.85;;
71435;SDS011;59251;51.326;12.370;2022-11-20T14:37:33;14.50;;;6.03;;
71435;SDS011;59251;51.326;12.370;2022-11-20T14:40:05;12.68;;;4.80;;
71435;SDS011;59251;51.326;12.370;2022-11-20T14:42:46;16.63;;;5.77;;
71435;SDS011;59251;51.326;12.370;2022-11-20T14:45:11;15.07;;;5.10;;
71435;SDS011;59251;51.326;12.370;2022-11-20T14:47:37;15.15;;;5.90;;
71435;SDS011;59251;51.326;12.370;2022-11-20T14:50:03;14.93;;;5.80;;
71435;SDS011;59251;51.326;12.370;2022-11-20T14:52:33;19.30;;;7.03;;
71435;SDS011;59251;51.326;12.370;2022-11-20T14:54:58;16.37;;;5.87;;
71435;SDS011;59251;51.326;12.370;2022-11-20T14:57:34;15.10;;;5.53;;
71435;SDS011;59251;51.326;12.370;2022-11-20T15:02:39;16.60;;;5.47;;
71435;SDS011;59251;51.326;12.370;2022-11-20T15:05:06;18.55;;;6.90;;
71435;SDS011;59251;51.326;12.370;2022-11-20T15:07:33;17.97;;;7.07;;
71435;SDS011;59251;51.326;12.370;2022-11-20T15:10:09;18.27;;;6.90;;
71435;SDS011;59251;51.326;12.370;2022-11-20T15:12:46;15.43;;;5.93;;
71435;SDS011;59251;51.326;12.370;2022-11-20T15:15:25;15.90;;;6.07;;
71435;SDS011;59251;51.326;12.370;2022-11-20T15:17:56;18.23;;;6.85;;
71435;SDS011;59251;51.326;12.370;2022-11-20T15:20:24;17.90;;;5.95;;
71435;SDS011;59251;51.326;12.370;2022-11-20T15:22:52;18.42;;;7.03;;
71435;SDS011;59251;51.326;12.370;2022-11-20T15:25:18;17.80;;;7.03;;
71435;SDS011;59251;51.326;12.370;2022-11-20T15:27:44;19.17;;;6.90;;
71435;SDS011;59251;51.326;12.370;2022-11-20T15:32:41;20.60;;;7.97;;
71435;SDS011;59251;51.326;12.370;2022-11-20T15:35:07;19.48;;;7.15;;
71435;SDS011;59251;51.326;12.370;2022-11-20T15:37:34;19.10;;;6.78;;
71435;SDS011;59251;51.326;12.370;2022-11-20T15:40:00;19.40;;;7.40;;
71435;SDS011;59251;51.326;12.370;2022-11-20T15:42:26;17.77;;;7.22;;
71435;SDS011;59251;51.326;12.370;2022-11-20T15:44:51;19.83;;;7.40;;
71435;SDS011;59251;51.326;12.370;2022-11-20T15:47:16;20.13;;;7.83;;
71435;SDS011;59251;51.326;12.370;2022-11-20T15:49:43;20.05;;;7.72;;
71435;SDS011;59251;51.326;12.370;2022-11-20T15:52:08;18.10;;;7.10;;
71435;SDS011;59251;51.326;12.370;2022-11-20T15:54:40;19.00;;;6.88;;
71435;SDS011;59251;51.326;12.370;2022-11-20T15:57:06;20.87;;;7.73;;
71435;SDS011;59251;51.326;12.370;2022-11-20T15:59:31;17.37;;;6.57;;
71435;SDS011;59251;51.326;12.370;2022-11-20T16:01:57;21.00;;;7.73;;
71435;SDS011;59251;51.326;12.370;2022-11-20T16:04:22;20.40;;;7.47;;
71435;SDS011;59251;51.326;12.370;2022-11-20T16:06:48;20.10;;;7.67;;
71435;SDS011;59251;51.326;12.370;2022-11-20T16:09:13;20.90;;;8.53;;
71435;SDS011;59251;51.326;12.370;2022-11-20T16:11:38;23.83;;;8.23;;
71435;SDS011;59251;51.326;12.370;2022-11-20T16:14:04;20.13;;;8.07;;